Guernsey, Ohio
Current Conditions -  °F | °C
As of 2:53 PM on Thursday 23 Oct 2014 (Local Time) from KPHD Reporting Station
Scattered Clouds Scattered Clouds  
Wind Chill: 59°   Ceiling: Unl
Heat Index: 59°   Visibility: 10mi
Dew Point: 44°   Wind: 12mph
Humidity: 58%   Direction: 310°NW
Pressure: 30.13"   Gusts: 17mph
Location:  40.1705°N, 81.5444°W
Report Text: KPHD 231853Z AUTO 31010G15KT 10SM SCT031 15/07 A3013 RMK AO2 SLP205 T01500067
Loading
Personal Weather Stations






























Interactive Weather Map
Tropical Storm Tracking
New forecast layout! Learn more

10-Day Weather Forecast

Advertisements
Track Severe Weather on mobile